Time;durP1;ratioP1;P1;durP2;ratioP2;P2;SDS_P1;SDS_P2;PMS_P1;PMS_P2;Temp;Humidity;BMP_temperature;BMP_pressure;BME280_temperature;BME280_humidity;BME280_pressure;Samples;Min_cycle;Max_cycle;Signal;HPM_P1;HPM_P2
2022/12/15 05:32:03;;;;;;;86.33;57.17;;;5.80;75.10;;;;;;4586645;19;20500;-33
2022/12/15 05:33:34;;;;;;;94.60;60.40;;;5.40;75.60;;;;;;4587516;19;20491;-31
2022/12/15 05:35:05;;;;;;;86.10;57.50;;;5.20;75.60;;;;;;4587488;19;20168;-37
2022/12/15 05:36:37;;;;;;;99.45;61.50;;;5.10;76.30;;;;;;4586264;19;20551;-34
2022/12/15 05:38:08;;;;;;;130.85;66.25;;;5.00;77.30;;;;;;4587696;19;20480;-35
2022/12/15 05:39:39;;;;;;;91.55;58.03;;;4.90;77.40;;;;;;4584090;19;20654;-32
2022/12/15 05:41:11;;;;;;;86.70;54.53;;;4.80;77.10;;;;;;4585570;19;20026;-37
2022/12/15 05:46:14;;;;;;;85.28;55.30;;;4.60;78.60;;;;;;4591251;19;20010;-30
2022/12/15 05:47:50;;;;;;;89.53;57.00;;;4.60;78.90;;;;;;4590534;19;20014;-29
2022/12/15 05:49:22;;;;;;;89.82;58.33;;;4.60;79.00;;;;;;4594427;19;20070;-29
2022/12/15 05:50:53;;;;;;;;;;;4.60;78.80;;;;;;4591937;19;20070;-32
2022/12/15 05:52:25;;;;;;;87.32;56.35;;;4.50;78.80;;;;;;4591188;19;19975;-32
2022/12/15 05:53:56;;;;;;;93.20;59.08;;;4.50;79.10;;;;;;4594759;19;20014;-29
2022/12/15 05:55:27;;;;;;;105.45;64.28;;;4.50;79.60;;;;;;4593357;19;20014;-29
2022/12/15 05:56:59;;;;;;;121.05;69.50;;;4.50;79.90;;;;;;4593854;19;20043;-30
2022/12/15 05:58:31;;;;;;;126.35;72.55;;;4.40;79.70;;;;;;4591995;19;20014;-31
2022/12/15 06:00:04;;;;;;;116.32;73.05;;;4.40;80.90;;;;;;4591376;19;20409;-30
2022/12/15 06:01:36;;;;;;;88.80;57.72;;;4.40;80.60;;;;;;4593138;19;20018;-30
2022/12/15 06:03:07;;;;;;;90.30;59.15;;;4.40;80.20;;;;;;4592179;19;20392;-30
2022/12/15 06:04:38;;;;;;;87.38;55.90;;;4.50;80.50;;;;;;4593295;19;20014;-29
2022/12/15 06:06:11;;;;;;;85.88;56.47;;;4.40;80.70;;;;;;4592378;19;20073;-29
2022/12/15 06:07:43;;;;;;;78.93;51.33;;;4.40;80.00;;;;;;4593677;19;20011;-32
2022/12/15 06:09:15;;;;;;;80.07;49.75;;;4.40;81.10;;;;;;4591068;19;20018;-29
2022/12/15 06:10:52;;;;;;;80.22;51.70;;;4.40;81.50;;;;;;4593414;19;20041;-29
2022/12/15 06:12:23;;;;;;;80.70;50.13;;;4.30;81.40;;;;;;4590525;19;20480;-28
2022/12/15 06:13:55;;;;;;;86.10;51.33;;;4.30;82.30;;;;;;4592747;19;20350;-29
2022/12/15 06:15:27;;;;;;;86.25;53.85;;;5.60;80.40;;;;;;4593191;19;20014;-29
2022/12/15 06:16:58;;;;;;;;;;;6.90;77.40;;;;;;4593978;19;20043;-29
2022/12/15 06:18:37;;;;;;;71.60;46.72;;;7.70;75.30;;;;;;4594263;19;20293;-25
2022/12/15 06:20:10;;;;;;;94.60;61.17;;;8.40;74.30;;;;;;4592348;19;20007;-31
2022/12/15 06:21:41;;;;;;;98.90;70.97;;;8.90;72.80;;;;;;4592807;19;20425;-28
2022/12/15 06:23:12;;;;;;;89.80;64.40;;;9.20;72.00;;;;;;4593671;19;20047;-28
2022/12/15 06:24:46;;;;;;;75.63;52.17;;;9.40;71.40;;;;;;4593328;19;20025;-28
2022/12/15 06:26:21;;;;;;;76.07;54.10;;;9.60;70.60;;;;;;4595761;19;20473;-29
2022/12/15 06:27:52;;;;;;;73.90;51.27;;;9.80;70.70;;;;;;4596378;19;20014;-29
2022/12/15 06:29:24;;;;;;;69.87;49.93;;;9.90;70.40;;;;;;4593957;19;21015;-29
2022/12/15 06:31:00;;;;;;;72.53;51.17;;;10.10;70.10;;;;;;4594390;19;20729;-30
2022/12/15 06:32:34;;;;;;;73.93;51.73;;;10.20;69.80;;;;;;4591563;19;20575;-28
2022/12/15 06:34:07;;;;;;;69.10;49.53;;;10.30;69.90;;;;;;4594089;19;20503;-30
2022/12/15 06:35:40;;;;;;;67.60;48.50;;;10.30;69.20;;;;;;4594538;19;20457;-29
2022/12/15 06:37:11;;;;;;;67.30;49.30;;;10.40;69.10;;;;;;4593814;19;20441;-29
2022/12/15 06:38:44;;;;;;;72.97;53.07;;;10.50;69.20;;;;;;4592750;19;20018;-28
2022/12/15 06:40:17;;;;;;;75.37;52.67;;;10.60;69.00;;;;;;4592667;19;20463;-30
2022/12/15 06:41:48;;;;;;;85.22;60.45;;;10.70;68.90;;;;;;4591988;19;20469;-28
2022/12/15 06:43:20;;;;;;;87.67;63.53;;;10.80;69.10;;;;;;4593892;19;20006;-28
2022/12/15 06:44:52;;;;;;;76.43;56.67;;;10.80;68.60;;;;;;4593248;19;20421;-29
2022/12/15 07:16:20;;;;;;;75.70;51.57;;;11.20;67.90;;;;;;4591980;19;21052;-28
2022/12/15 07:17:55;;;;;;;81.13;54.17;;;11.30;67.90;;;;;;4593000;19;20473;-29
2022/12/15 07:19:27;;;;;;;82.33;56.23;;;11.30;68.00;;;;;;4593459;19;20453;-34
2022/12/15 07:21:03;;;;;;;80.95;56.13;;;11.30;68.10;;;;;;4592330;19;20460;-27
2022/12/15 07:22:35;;;;;;;75.67;51.37;;;11.40;68.30;;;;;;4592534;19;20022;-26
2022/12/15 07:24:08;;;;;;;;;;;11.40;68.20;;;;;;4590636;19;20557;-33
2022/12/15 07:25:40;;;;;;;73.30;47.53;;;11.40;68.20;;;;;;4591404;19;20325;-29
2022/12/15 07:27:12;;;;;;;75.73;48.73;;;11.50;68.10;;;;;;4593023;19;20483;-29
2022/12/15 07:28:43;;;;;;;75.20;49.67;;;11.60;68.00;;;;;;4590187;19;20457;-36
2022/12/15 07:30:16;;;;;;;;;;;11.60;67.70;;;;;;4593099;19;20547;-31
2022/12/15 07:31:48;;;;;;;78.83;51.13;;;11.70;67.60;;;;;;4591557;19;19925;-37
2022/12/15 07:33:19;;;;;;;80.75;52.00;;;11.70;67.60;;;;;;4590401;19;20544;-28
2022/12/15 07:34:51;;;;;;;77.93;53.47;;;11.80;67.70;;;;;;4592573;19;20090;-28
2022/12/15 07:36:23;;;;;;;85.60;60.47;;;11.90;67.80;;;;;;4591952;19;20046;-31
2022/12/15 07:37:55;;;;;;;84.43;58.87;;;11.90;67.60;;;;;;4590240;19;20451;-30
2022/12/15 07:39:27;;;;;;;76.32;52.50;;;11.90;67.60;;;;;;4592367;19;20482;-33
2022/12/15 07:41:02;;;;;;;;;;;12.00;67.50;;;;;;4592925;19;20015;-30
2022/12/15 07:42:34;;;;;;;75.70;50.53;;;12.00;67.70;;;;;;4589915;19;19923;-30
2022/12/15 07:44:05;;;;;;;76.97;51.67;;;12.00;67.50;;;;;;4592616;19;20449;-30
2022/12/15 07:45:37;;;;;;;74.95;50.42;;;12.00;67.60;;;;;;4591667;19;20355;-36
2022/12/15 07:47:07;;;;;;;75.45;53.17;;;12.00;67.70;;;;;;4589311;19;20002;-36
2022/12/15 07:48:39;;;;;;;76.28;50.03;;;11.90;67.60;;;;;;4592496;19;20107;-33
2022/12/15 07:50:10;;;;;;;78.53;51.35;;;12.00;67.80;;;;;;4591959;19;20007;-30
2022/12/15 07:51:42;;;;;;;;;;;11.90;67.50;;;;;;4590069;19;20018;-29
2022/12/15 07:53:14;;;;;;;79.28;52.95;;;11.90;67.70;;;;;;4590056;19;20248;-30
2022/12/15 07:54:47;;;;;;;94.33;64.10;;;11.90;67.80;;;;;;4589834;19;20018;-29
2022/12/15 08:02:04;;;;;;;104.83;69.30;;;11.80;68.20;;;;;;4590561;19;20511;-36
2022/12/15 08:03:36;;;;;;;103.03;71.73;;;11.80;68.00;;;;;;4590305;19;20511;-31
2022/12/15 08:05:08;;;;;;;100.65;71.80;;;11.80;67.80;;;;;;4590416;19;20519;-29
2022/12/15 08:06:39;;;;;;;105.23;75.80;;;11.80;67.90;;;;;;4589644;19;20082;-29
2022/12/15 08:08:11;;;;;;;88.32;62.65;;;11.80;68.00;;;;;;4589726;19;20568;-29
2022/12/15 08:09:41;;;;;;;93.30;63.30;;;11.80;68.20;;;;;;4592041;19;20497;-30
2022/12/15 08:11:13;;;;;;;86.90;60.15;;;11.80;68.10;;;;;;4589714;19;20012;-31
2022/12/15 08:12:45;;;;;;;91.43;60.83;;;11.90;68.20;;;;;;4587912;19;20002;-32
2022/12/15 08:14:16;;;;;;;88.80;60.35;;;11.80;68.00;;;;;;4588871;19;20530;-30
2022/12/15 08:15:53;;;;;;;90.05;57.38;;;11.80;68.30;;;;;;4591112;19;20022;-31
2022/12/15 08:17:24;;;;;;;91.13;57.77;;;11.80;68.40;;;;;;4589446;19;20021;-30
2022/12/15 08:18:59;;;;;;;92.60;60.78;;;11.80;68.50;;;;;;4588538;19;20545;-30
2022/12/15 08:20:30;;;;;;;96.37;60.03;;;11.80;68.50;;;;;;4590785;19;20491;-29
2022/12/15 08:22:01;;;;;;;97.90;63.58;;;11.80;68.70;;;;;;4588426;19;20449;-29
2022/12/15 08:23:50;;;;;;;100.03;66.65;;;11.80;68.90;;;;;;4590034;19;20006;-30
2022/12/15 08:25:22;;;;;;;87.30;59.67;;;11.80;68.70;;;;;;4588739;19;20372;-31
2022/12/15 08:26:53;;;;;;;90.72;58.28;;;11.80;68.40;;;;;;4588794;19;20437;-30
2022/12/15 08:28:24;;;;;;;86.38;55.47;;;11.80;68.80;;;;;;4589030;19;20015;-31
2022/12/15 08:29:55;;;;;;;91.93;60.60;;;11.80;68.80;;;;;;4588641;19;20010;-30
2022/12/15 08:31:27;;;;;;;82.63;52.45;;;11.80;68.90;;;;;;4588884;19;20035;-32
2022/12/15 08:33:02;;;;;;;75.67;51.13;;;11.80;68.80;;;;;;4588859;19;20014;-31
2022/12/15 08:34:34;;;;;;;83.00;52.75;;;11.80;69.00;;;;;;4590764;19;20445;-29
2022/12/15 08:36:07;;;;;;;84.43;54.67;;;11.80;68.90;;;;;;4589408;19;20021;-29
2022/12/15 08:37:38;;;;;;;77.00;51.03;;;11.80;69.00;;;;;;4590359;19;20421;-30
2022/12/15 08:39:09;;;;;;;76.57;51.92;;;11.80;68.90;;;;;;4590950;19;20425;-29
2022/12/15 08:40:41;;;;;;;124.03;100.00;;;11.80;68.90;;;;;;4590218;19;20054;-29
2022/12/15 08:42:12;;;;;;;166.00;139.27;;;11.70;68.80;;;;;;4589542;19;20023;-31
2022/12/15 08:43:43;;;;;;;121.25;96.43;;;11.80;68.80;;;;;;4590596;19;20018;-30
2022/12/15 08:45:15;;;;;;;139.90;118.37;;;11.80;69.00;;;;;;4589570;19;20011;-29
2022/12/15 08:46:46;;;;;;;104.43;75.90;;;11.80;68.90;;;;;;4591206;19;20493;-32
2022/12/15 08:48:17;;;;;;;94.03;65.90;;;11.80;68.90;;;;;;4591054;19;20011;-30
2022/12/15 08:49:49;;;;;;;105.90;80.38;;;11.80;68.90;;;;;;4590483;19;20089;-31
2022/12/15 08:51:21;;;;;;;85.57;57.75;;;11.80;68.80;;;;;;4589303;19;20010;-32
2022/12/15 08:52:52;;;;;;;93.70;67.27;;;11.70;68.80;;;;;;4590840;19;20043;-30
2022/12/15 08:54:24;;;;;;;81.53;55.17;;;11.80;68.80;;;;;;4590452;19;20524;-30
2022/12/15 08:55:55;;;;;;;82.13;53.92;;;11.80;69.60;;;;;;4590793;19;20010;-29
2022/12/15 08:57:26;;;;;;;80.40;52.13;;;11.80;69.20;;;;;;4590085;19;20043;-30
2022/12/15 08:58:59;;;;;;;78.93;51.72;;;11.80;69.30;;;;;;4589614;19;20014;-30
2022/12/15 09:00:30;;;;;;;78.63;50.73;;;11.80;69.40;;;;;;4588957;19;20094;-30
2022/12/15 09:02:01;;;;;;;83.80;54.13;;;11.80;69.60;;;;;;4590902;19;20497;-30
2022/12/15 09:03:33;;;;;;;83.13;53.72;;;11.80;69.60;;;;;;4590919;19;20362;-31
2022/12/15 09:05:05;;;;;;;;;;;11.80;69.50;;;;;;4590331;19;20006;-29
2022/12/15 09:06:36;;;;;;;85.47;52.90;;;11.80;69.70;;;;;;4589696;19;19911;-29
2022/12/15 09:08:07;;;;;;;77.40;50.97;;;11.80;69.70;;;;;;4590370;19;20437;-29
2022/12/15 09:09:38;;;;;;;82.70;54.10;;;11.80;69.90;;;;;;4590687;19;20010;-33
2022/12/15 09:11:10;;;;;;;84.22;56.70;;;11.80;69.80;;;;;;4589638;19;20027;-31
2022/12/15 09:12:41;;;;;;;;;;;11.80;69.70;;;;;;4590907;19;20022;-30
2022/12/15 09:14:13;;;;;;;90.03;56.57;;;11.80;69.90;;;;;;4590950;19;19918;-31
2022/12/15 09:15:45;;;;;;;85.50;53.57;;;11.80;69.70;;;;;;4591463;19;20465;-34
2022/12/15 09:17:17;;;;;;;85.47;53.63;;;11.80;69.70;;;;;;4591827;19;20576;-32
2022/12/15 09:18:50;;;;;;;84.20;53.00;;;11.80;70.00;;;;;;4589051;19;20437;-35
2022/12/15 09:20:21;;;;;;;80.47;51.10;;;11.80;70.10;;;;;;4590501;19;20010;-31
2022/12/15 09:21:53;;;;;;;81.65;51.63;;;11.80;70.00;;;;;;4589766;19;20635;-34
2022/12/15 09:23:26;;;;;;;84.07;52.70;;;11.80;70.10;;;;;;4589462;19;20014;-33
2022/12/15 09:24:57;;;;;;;87.87;54.10;;;11.80;69.90;;;;;;4589917;19;20531;-35
2022/12/15 09:26:32;;;;;;;82.68;52.08;;;11.80;70.10;;;;;;4589917;19;20548;-30
2022/12/15 09:28:04;;;;;;;84.77;53.77;;;11.80;70.20;;;;;;4588808;19;20484;-30
2022/12/15 09:29:35;;;;;;;80.88;53.38;;;11.80;70.10;;;;;;4587344;19;21116;-30
2022/12/15 09:31:07;;;;;;;85.78;55.38;;;11.90;70.30;;;;;;4588733;19;20018;-29
2022/12/15 09:32:39;;;;;;;85.77;56.43;;;11.80;70.40;;;;;;4588679;19;20378;-29
2022/12/15 09:34:13;;;;;;;84.90;55.80;;;11.80;70.50;;;;;;4590576;19;20525;-31
2022/12/15 09:35:51;;;;;;;83.97;55.93;;;11.90;70.40;;;;;;4589431;19;20019;-29
2022/12/15 09:39:14;;;;;;;89.97;59.07;;;11.80;70.60;;;;;;4589629;19;20424;-30
2022/12/15 09:40:46;;;;;;;86.77;58.03;;;11.90;70.70;;;;;;4589518;19;20441;-32
2022/12/15 09:42:26;;;;;;;89.15;59.38;;;11.90;70.70;;;;;;4589161;19;20516;-29
2022/12/15 09:44:05;;;;;;;91.80;60.23;;;11.90;70.80;;;;;;4589653;19;20039;-30
2022/12/15 09:45:42;;;;;;;105.80;65.83;;;11.90;70.80;;;;;;4587002;19;20465;-29
2022/12/15 09:47:41;;;;;;;91.50;57.20;;;11.80;70.90;;;;;;4587478;19;20981;-30
2022/12/15 09:49:20;;;;;;;88.87;56.90;;;11.80;71.10;;;;;;4590381;19;20483;-28
2022/12/15 09:50:52;;;;;;;81.50;51.10;;;11.80;71.10;;;;;;4591191;19;21223;-31
2022/12/15 09:52:27;;;;;;;77.85;53.05;;;11.80;70.90;;;;;;4589199;19;20526;-28
2022/12/15 09:53:58;;;;;;;79.60;53.57;;;11.80;71.10;;;;;;4588497;19;20067;-29
2022/12/15 09:55:33;;;;;;;79.28;52.13;;;11.90;71.10;;;;;;4589426;19;20420;-27
2022/12/15 09:57:09;;;;;;;75.80;51.03;;;11.90;70.90;;;;;;4588092;19;20023;-30
2022/12/15 09:58:49;;;;;;;77.43;53.57;;;11.90;71.10;;;;;;4587946;19;20413;-28
2022/12/15 10:00:25;;;;;;;72.50;48.73;;;11.80;71.20;;;;;;4586746;19;21105;-28
2022/12/15 10:02:20;;;;;;;62.63;44.73;;;11.80;71.30;;;;;;4588201;19;20459;-27
2022/12/15 10:04:10;;;;;;;69.13;49.13;;;11.90;71.50;;;;;;4589698;19;20404;-27
2022/12/15 10:05:47;;;;;;;71.80;47.33;;;11.90;71.60;;;;;;4589054;19;20377;-29
2022/12/15 10:07:40;;;;;;;65.93;45.50;;;11.90;71.70;;;;;;4587912;19;20433;-27
2022/12/15 10:09:19;;;;;;;65.97;46.03;;;11.90;71.80;;;;;;4587327;19;21041;-28
2022/12/15 10:10:54;;;;;;;62.80;43.97;;;11.90;71.80;;;;;;4590014;19;20484;-28
2022/12/15 10:12:28;;;;;;;72.23;49.20;;;11.90;71.80;;;;;;4586961;19;20566;-27
2022/12/15 10:14:18;;;;;;;66.60;48.17;;;11.90;71.80;;;;;;4588749;19;20489;-29
2022/12/15 10:16:05;;;;;;;71.27;49.57;;;12.00;71.80;;;;;;4588933;19;20550;-28
2022/12/15 10:18:05;;;;;;;74.63;50.13;;;12.00;71.80;;;;;;4587750;19;20413;-28
2022/12/15 10:19:50;;;;;;;73.77;51.67;;;12.00;72.10;;;;;;4587205;19;21141;-27
2022/12/15 10:21:26;;;;;;;84.40;58.00;;;12.00;71.90;;;;;;4588626;19;20812;-28
2022/12/15 10:23:14;;;;;;;81.87;53.63;;;12.00;72.10;;;;;;4586467;19;20801;-29
2022/12/15 10:24:47;;;;;;;85.20;57.00;;;12.00;72.10;;;;;;4586762;19;20433;-28
2022/12/15 10:26:24;;;;;;;86.55;56.05;;;12.00;72.20;;;;;;4586983;19;20917;-28
2022/12/15 10:28:26;;;;;;;90.97;57.07;;;12.00;72.20;;;;;;4586533;19;20451;-28
2022/12/15 10:30:01;;;;;;;90.32;59.92;;;12.00;72.10;;;;;;4586756;19;20428;-28
2022/12/15 10:31:44;;;;;;;95.03;63.03;;;12.00;72.00;;;;;;4591120;19;20481;-27
2022/12/15 10:33:19;;;;;;;95.77;65.73;;;12.10;72.20;;;;;;4591411;19;20441;-28
2022/12/15 10:34:50;;;;;;;96.43;63.03;;;12.10;72.40;;;;;;4591230;19;20452;-27
2022/12/15 10:36:21;;;;;;;92.15;60.63;;;12.10;72.40;;;;;;4591020;19;20457;-29
2022/12/15 10:37:58;;;;;;;86.55;57.20;;;12.20;72.50;;;;;;4593506;19;20007;-27
2022/12/15 10:39:39;;;;;;;80.43;53.03;;;12.10;72.50;;;;;;4590846;19;20015;-28
2022/12/15 10:41:15;;;;;;;81.85;54.67;;;12.20;72.80;;;;;;4592320;19;20525;-27
2022/12/15 10:42:48;;;;;;;92.83;62.50;;;12.20;72.60;;;;;;4591601;19;20015;-26
2022/12/15 10:44:24;;;;;;;89.67;59.83;;;12.10;72.50;;;;;;4590770;19;20436;-30
2022/12/15 10:46:17;;;;;;;86.30;57.33;;;12.10;72.60;;;;;;4590735;19;20535;-29
2022/12/15 10:47:57;;;;;;;87.10;56.87;;;12.10;72.60;;;;;;4590787;19;20463;-29
2022/12/15 10:49:29;;;;;;;84.60;56.97;;;12.10;72.70;;;;;;4591501;19;20392;-29
2022/12/15 10:51:41;;;;;;;111.03;71.93;;;12.10;72.70;;;;;;4589925;19;20566;-27
2022/12/15 10:53:33;;;;;;;85.78;57.22;;;12.10;72.90;;;;;;4590905;19;20587;-27
2022/12/15 10:55:30;;;;;;;91.85;60.88;;;12.10;72.80;;;;;;4591238;19;20034;-28
2022/12/15 10:57:19;;;;;;;100.20;64.17;;;12.10;73.00;;;;;;4590285;19;20474;-28
2022/12/15 10:58:52;;;;;;;97.77;65.37;;;12.10;73.20;;;;;;4590499;19;20425;-28
2022/12/15 11:00:28;;;;;;;99.57;65.87;;;12.10;73.20;;;;;;4588976;19;21819;-28
2022/12/15 11:02:24;;;;;;;100.10;64.97;;;12.10;73.20;;;;;;4592450;19;20526;-29
2022/12/15 11:03:55;;;;;;;103.50;66.23;;;12.10;73.10;;;;;;4590601;19;20475;-28
2022/12/15 11:05:27;;;;;;;108.00;71.57;;;12.10;73.10;;;;;;4590220;19;20437;-28
2022/12/15 11:06:59;;;;;;;104.43;70.72;;;12.10;73.10;;;;;;4590401;19;20015;-28
2022/12/15 11:08:30;;;;;;;104.93;70.57;;;12.10;73.20;;;;;;4590623;19;20014;-27
2022/12/15 11:10:12;;;;;;;110.95;74.63;;;12.10;73.40;;;;;;4592806;19;21096;-29
2022/12/15 11:13:36;;;;;;;116.53;75.22;;;12.10;73.50;;;;;;4590465;19;20433;-28
2022/12/15 11:15:22;;;;;;;117.65;75.03;;;12.10;73.50;;;;;;4590305;19;20014;-28
2022/12/15 11:16:57;;;;;;;121.87;78.07;;;12.00;73.70;;;;;;4590396;19;20011;-27
2022/12/15 11:18:34;;;;;;;116.23;79.87;;;12.00;73.80;;;;;;4590788;19;20432;-27
2022/12/15 11:20:19;;;;;;;116.63;80.87;;;12.10;73.90;;;;;;4590615;19;20456;-31
2022/12/15 11:21:52;;;;;;;119.93;81.00;;;12.00;74.00;;;;;;4590765;19;20540;-30
2022/12/15 11:23:41;;;;;;;117.00;80.67;;;12.00;74.20;;;;;;4590334;19;20448;-28
2022/12/15 11:25:32;;;;;;;117.90;82.17;;;12.00;74.10;;;;;;4590122;19;20530;-27
2022/12/15 11:27:22;;;;;;;129.80;89.97;;;12.10;74.20;;;;;;4590955;19;20810;-28
2022/12/15 11:29:23;;;;;;;134.97;92.33;;;12.00;74.20;;;;;;4590467;19;20531;-28
2022/12/15 11:31:01;;;;;;;123.73;87.10;;;12.00;74.10;;;;;;4591465;19;20812;-28
2022/12/15 11:32:33;;;;;;;117.27;79.90;;;12.00;74.00;;;;;;4589874;19;20441;-28
2022/12/15 11:34:14;;;;;;;;;;;12.00;74.10;;;;;;4591746;19;20449;-29
2022/12/15 11:35:45;;;;;;;117.70;78.13;;;12.00;74.10;;;;;;4590633;19;19937;-32
2022/12/15 11:37:41;;;;;;;108.97;74.47;;;12.00;74.10;;;;;;4592262;19;20465;-32
2022/12/15 11:39:51;;;;;;;124.97;83.53;;;12.00;74.00;;;;;;4591150;19;20460;-30
2022/12/15 11:41:30;;;;;;;119.77;86.30;;;12.00;74.10;;;;;;4588577;19;20539;-30
2022/12/15 11:43:25;;;;;;;115.40;79.70;;;12.00;74.30;;;;;;4589570;19;20441;-27
2022/12/15 11:45:24;;;;;;;100.73;73.37;;;11.90;74.30;;;;;;4590449;19;20488;-29
2022/12/15 11:47:18;;;;;;;108.33;72.77;;;11.90;74.20;;;;;;4591140;19;20452;-31
2022/12/15 11:49:23;;;;;;;104.10;74.33;;;12.00;74.00;;;;;;4591456;19;20527;-28
2022/12/15 11:51:01;;;;;;;106.53;73.00;;;12.00;73.80;;;;;;4588912;19;20472;-29
2022/12/15 11:52:50;;;;;;;103.57;72.00;;;11.90;73.50;;;;;;4591115;19;20473;-31
2022/12/15 11:54:47;;;;;;;108.30;74.70;;;12.00;73.60;;;;;;4589557;19;20827;-28
2022/12/15 11:56:41;;;;;;;107.13;74.17;;;12.00;73.70;;;;;;4589846;19;20420;-29
2022/12/15 11:58:54;;;;;;;109.83;78.13;;;12.00;73.70;;;;;;4590269;19;20436;-28
2022/12/15 12:00:25;;;;;;;112.80;77.57;;;12.00;73.70;;;;;;4587916;19;20487;-27
2022/12/15 12:02:15;;;;;;;102.85;74.05;;;12.00;73.90;;;;;;4588877;19;20564;-29
2022/12/15 12:03:52;;;;;;;108.33;75.57;;;12.10;73.80;;;;;;4590935;19;20013;-29
2022/12/15 12:05:32;;;;;;;109.10;75.77;;;12.00;74.00;;;;;;4591146;19;20494;-29
2022/12/15 12:07:37;;;;;;;104.90;74.17;;;12.00;74.20;;;;;;4589195;19;21006;-27
2022/12/15 12:09:28;;;;;;;101.43;71.50;;;12.00;74.00;;;;;;4589035;19;20520;-27
2022/12/15 12:11:20;;;;;;;105.27;72.47;;;12.00;74.20;;;;;;4586947;19;20519;-28
2022/12/15 12:13:23;;;;;;;107.47;75.90;;;12.00;74.20;;;;;;4587837;19;20498;-28
2022/12/15 12:15:14;;;;;;;117.77;81.43;;;12.00;74.10;;;;;;4611565;19;20672;-30
2022/12/15 12:16:48;;;;;;;110.87;78.93;;;12.00;73.90;;;;;;4614362;19;20449;-31
2022/12/15 12:18:29;;;;;;;103.47;73.60;;;12.00;73.90;;;;;;4611426;19;20417;-31
2022/12/15 12:20:03;;;;;;;109.40;77.17;;;12.00;73.90;;;;;;4610666;19;21048;-29
2022/12/15 12:21:48;;;;;;;111.87;80.23;;;12.00;73.90;;;;;;4612424;19;21024;-30
2022/12/15 12:23:23;;;;;;;115.23;80.20;;;12.00;73.90;;;;;;4610861;19;20448;-29
2022/12/15 12:25:10;;;;;;;119.63;83.20;;;12.00;73.90;;;;;;4612791;19;20472;-31
2022/12/15 12:26:48;;;;;;;121.23;81.87;;;12.00;74.10;;;;;;4612938;19;20444;-31
2022/12/15 12:28:22;;;;;;;120.43;81.33;;;12.00;74.10;;;;;;4611059;19;20420;-30
2022/12/15 12:30:17;;;;;;;116.30;81.17;;;12.00;74.10;;;;;;4611529;19;20494;-29
2022/12/15 12:32:09;;;;;;;123.40;84.43;;;12.00;74.00;;;;;;4610443;19;20476;-30
2022/12/15 12:33:43;;;;;;;130.00;87.03;;;12.00;74.10;;;;;;4614037;19;20431;-29
2022/12/15 12:35:45;;;;;;;130.93;91.67;;;12.00;74.10;;;;;;4611347;19;20014;-29
2022/12/15 12:37:24;;;;;;;138.40;95.50;;;12.00;74.00;;;;;;4609955;19;20476;-29
2022/12/15 12:38:55;;;;;;;141.97;95.97;;;12.00;74.10;;;;;;4612380;19;20014;-30
2022/12/15 12:40:53;;;;;;;125.63;90.90;;;12.00;74.00;;;;;;4609944;19;20432;-30
2022/12/15 12:42:36;;;;;;;124.87;88.33;;;12.00;74.00;;;;;;4609420;19;20016;-30
2022/12/15 12:44:15;;;;;;;123.80;86.53;;;12.00;73.90;;;;;;4610452;19;20427;-30
2022/12/15 12:45:52;;;;;;;121.93;84.60;;;12.00;73.90;;;;;;4610283;19;21045;-29
2022/12/15 12:47:29;;;;;;;116.83;82.03;;;11.90;74.00;;;;;;4609793;19;20499;-30
2022/12/15 12:49:12;;;;;;;114.40;81.73;;;12.00;74.20;;;;;;4609958;19;20553;-32
2022/12/15 12:50:43;;;;;;;113.30;81.03;;;12.00;74.00;;;;;;4611231;19;20460;-29
2022/12/15 12:52:26;;;;;;;118.80;82.75;;;12.00;74.00;;;;;;4610313;19;21000;-29
2022/12/15 12:53:57;;;;;;;115.73;80.33;;;12.00;74.00;;;;;;4611036;19;20010;-30
2022/12/15 12:55:39;;;;;;;114.65;80.32;;;12.00;74.10;;;;;;4609114;19;20888;-30
2022/12/15 12:57:10;;;;;;;106.60;77.90;;;12.00;74.20;;;;;;4609653;19;20063;-30
2022/12/15 12:58:41;;;;;;;110.40;80.18;;;12.00;74.10;;;;;;4609530;19;20014;-30
2022/12/15 13:00:20;;;;;;;102.82;75.30;;;11.90;74.00;;;;;;4607790;19;20018;-29
2022/12/15 13:01:52;;;;;;;97.97;70.67;;;11.90;74.10;;;;;;4608947;19;20019;-30
2022/12/15 13:03:23;;;;;;;98.68;71.90;;;12.00;74.10;;;;;;4609746;19;21055;-29
2022/12/15 13:04:57;;;;;;;94.90;71.40;;;11.90;74.00;;;;;;4609286;19;20002;-30
2022/12/15 13:06:34;;;;;;;98.30;72.00;;;11.90;74.10;;;;;;4611021;19;20103;-30
2022/12/15 13:08:06;;;;;;;94.43;70.10;;;11.90;74.80;;;;;;4611654;19;20448;-30
2022/12/15 13:09:38;;;;;;;;;;;11.90;74.50;;;;;;4611049;19;20456;-31
2022/12/15 13:11:47;;;;;;;97.35;69.20;;;11.90;74.30;;;;;;4610162;19;19919;-32
2022/12/15 13:13:30;;;;;;;96.50;72.10;;;11.90;74.40;;;;;;4609751;19;20018;-30
2022/12/15 13:15:10;;;;;;;101.13;73.10;;;11.90;74.50;;;;;;4607470;19;20564;-31
2022/12/15 13:16:42;;;;;;;103.83;75.67;;;11.90;74.30;;;;;;4608919;19;20452;-30
2022/12/15 13:18:21;;;;;;;105.70;83.03;;;12.00;74.40;;;;;;4609104;19;20472;-29
2022/12/15 13:19:57;;;;;;;106.67;79.27;;;11.70;73.90;;;;;;4609513;19;20025;-29
2022/12/15 13:21:43;;;;;;;117.57;84.07;;;11.20;75.40;;;;;;4608864;19;20551;-29
2022/12/15 13:23:20;;;;;;;126.07;85.57;;;11.50;75.40;;;;;;4609754;19;20416;-32
2022/12/15 13:24:51;;;;;;;121.87;84.97;;;11.70;75.10;;;;;;4609035;19;20444;-29
2022/12/15 13:26:23;;;;;;;110.93;82.85;;;11.70;74.80;;;;;;4592966;19;20466;-30
2022/12/15 13:27:57;;;;;;;103.10;75.80;;;11.80;74.70;;;;;;4592533;19;20011;-31
2022/12/15 13:29:28;;;;;;;102.00;75.77;;;11.90;74.50;;;;;;4592301;19;20456;-30
2022/12/15 13:31:19;;;;;;;103.80;73.73;;;11.90;74.30;;;;;;4592026;19;21028;-31
2022/12/15 13:32:52;;;;;;;111.73;80.13;;;11.90;74.10;;;;;;4593277;19;20847;-31
2022/12/15 13:34:23;;;;;;;108.80;81.73;;;12.00;74.00;;;;;;4592244;19;20893;-30
2022/12/15 13:35:55;;;;;;;;;;;12.00;74.00;;;;;;4595398;19;20459;-30
2022/12/15 13:37:50;;;;;;;113.27;80.40;;;12.00;73.80;;;;;;4593438;19;19923;-32
2022/12/15 13:39:27;;;;;;;108.97;80.90;;;12.00;73.90;;;;;;4593560;19;20019;-32
2022/12/15 13:40:58;;;;;;;91.70;67.33;;;12.00;73.80;;;;;;4592350;19;21115;-31
2022/12/15 13:42:30;;;;;;;98.70;72.55;;;12.00;74.90;;;;;;4593667;19;20480;-36
2022/12/15 13:44:01;;;;;;;;;;;12.10;73.70;;;;;;4594386;19;20006;-36
2022/12/15 13:45:38;;;;;;;115.63;75.13;;;12.10;73.70;;;;;;4590881;19;20245;-32
2022/12/15 13:47:20;;;;;;;106.33;74.10;;;12.10;73.60;;;;;;4590754;19;20465;-29
2022/12/15 13:48:54;;;;;;;105.22;73.55;;;12.10;73.60;;;;;;4591447;19;20397;-36
2022/12/15 13:50:38;;;;;;;97.33;70.13;;;12.10;73.40;;;;;;4590839;19;20015;-34
2022/12/15 13:52:20;;;;;;;100.60;72.47;;;12.20;73.40;;;;;;4590638;19;20775;-39
2022/12/15 13:53:58;;;;;;;110.00;74.35;;;12.10;73.40;;;;;;4590222;19;21004;-36
2022/12/15 13:55:39;;;;;;;104.00;76.03;;;12.20;73.50;;;;;;4590735;19;20542;-34
2022/12/15 13:57:12;;;;;;;104.47;73.20;;;12.20;73.30;;;;;;4590701;19;20435;-32
2022/12/15 13:58:46;;;;;;;107.07;75.33;;;12.20;73.20;;;;;;4590730;19;20469;-33
2022/12/15 14:00:18;;;;;;;101.30;71.80;;;12.20;73.10;;;;;;4589522;19;20479;-38
2022/12/15 14:01:50;;;;;;;100.68;74.68;;;12.20;73.10;;;;;;4590935;19;20433;-34
2022/12/15 14:03:21;;;;;;;102.33;74.73;;;12.20;73.00;;;;;;4590701;19;20475;-31
2022/12/15 14:05:13;;;;;;;124.25;86.55;;;12.20;73.00;;;;;;4590895;19;20433;-32
2022/12/15 14:06:49;;;;;;;127.03;85.43;;;12.20;72.90;;;;;;4589834;19;20107;-36
2022/12/15 14:08:21;;;;;;;121.90;88.97;;;12.20;72.90;;;;;;4593032;19;20441;-31
2022/12/15 14:09:53;;;;;;;127.80;89.10;;;12.20;72.90;;;;;;4590324;19;20856;-32
2022/12/15 14:11:24;;;;;;;122.95;90.68;;;12.20;72.80;;;;;;4591069;19;20461;-34
2022/12/15 14:12:57;;;;;;;126.13;89.47;;;12.20;72.90;;;;;;4592140;19;20007;-32
2022/12/15 14:14:30;;;;;;;125.57;88.17;;;12.20;72.80;;;;;;4589041;19;20058;-31
2022/12/15 14:16:27;;;;;;;114.27;81.70;;;12.20;73.00;;;;;;4590383;19;20437;-34
2022/12/15 14:18:00;;;;;;;121.13;85.07;;;12.20;72.90;;;;;;4589770;19;20449;-40
2022/12/15 14:19:45;;;;;;;124.03;86.37;;;12.20;72.90;;;;;;4591549;19;20433;-30
2022/12/15 14:21:21;;;;;;;123.50;88.90;;;12.20;72.90;;;;;;4591200;19;21004;-40
2022/12/15 14:22:53;;;;;;;130.40;92.60;;;12.20;72.70;;;;;;4592030;19;20467;-32
2022/12/15 14:24:27;;;;;;;130.07;93.33;;;12.20;72.70;;;;;;4592617;19;20433;-31
2022/12/15 14:26:10;;;;;;;137.20;100.00;;;12.10;72.80;;;;;;4591034;19;20477;-29
2022/12/15 14:27:41;;;;;;;137.33;96.97;;;12.20;73.20;;;;;;4590942;19;20429;-30